Time,TemperatureF,DewpointF,PressureIn,WindDirection,WindDirectionDegrees,WindSpeedMPH,WindSpeedGustMPH,Humidity,HourlyPrecipIn,Conditions,Clouds,dailyrainin,SoftwareType,DateUTC
2013-07-14 00:12:00,52.5,51.0,29.78,East,79,4.0,-999.0,93,-99.99,,,0.00,weatherlink.com 1.10,2013-07-14 06:12:00,
2013-07-14 00:28:00,53.0,50.0,29.78,East,80,1.0,-999.0,90,-99.99,,,0.00,weatherlink.com 1.10,2013-07-14 06:28:00,
2013-07-14 00:43:00,54.5,49.0,29.77,East,82,4.0,-999.0,82,-99.99,,,0.00,weatherlink.com 1.10,2013-07-14 06:43:00,
2013-07-14 00:58:00,54.1,49.0,29.77,ESE,123,5.0,-999.0,84,-99.99,,,0.00,weatherlink.com 1.10,2013-07-14 06:58:00,
2013-07-14 01:13:00,53.6,49.0,29.76,South,175,6.0,-999.0,85,-99.99,,,0.00,weatherlink.com 1.10,2013-07-14 07:13:00,
2013-07-14 01:28:00,53.6,50.0,29.75,South,185,10.0,-999.0,86,-99.99,,,0.00,weatherlink.com 1.10,2013-07-14 07:28:00,
2013-07-14 01:43:00,52.8,50.0,29.75,SSW,209,5.0,-999.0,89,-99.99,,,0.00,weatherlink.com 1.10,2013-07-14 07:43:00,
2013-07-14 01:58:00,51.3,49.0,29.75,SSW,213,7.0,-999.0,92,-99.99,,,0.00,weatherlink.com 1.10,2013-07-14 07:58:00,
2013-07-14 02:13:00,51.7,50.0,29.75,SSW,202,8.0,-999.0,92,-99.99,,,0.00,weatherlink.com 1.10,2013-07-14 08:13:00,
2013-07-14 02:29:00,53.2,49.0,29.75,SSW,207,9.0,-999.0,86,-99.99,,,0.00,weatherlink.com 1.10,2013-07-14 08:29:00,
2013-07-14 02:44:00,52.4,49.0,29.75,SW,220,9.0,-999.0,87,-99.99,,,0.00,weatherlink.com 1.10,2013-07-14 08:44:00,
2013-07-14 02:59:00,54.0,48.0,29.75,SSW,213,9.0,-999.0,81,-99.99,,,0.00,weatherlink.com 1.10,2013-07-14 08:59:00,
2013-07-14 03:14:00,54.8,48.0,29.76,SSW,211,6.0,-999.0,78,-99.99,,,0.00,weatherlink.com 1.10,2013-07-14 09:14:00,
2013-07-14 03:29:00,55.2,48.0,29.76,SSW,200,8.0,-999.0,76,-99.99,,,0.00,weatherlink.com 1.10,2013-07-14 09:29:00,
2013-07-14 03:44:00,54.6,48.0,29.77,SSW,201,8.0,-999.0,77,-99.99,,,0.00,weatherlink.com 1.10,2013-07-14 09:44:00,
2013-07-14 03:59:00,54.5,48.0,29.78,SW,217,7.0,-999.0,78,-99.99,,,0.00,weatherlink.com 1.10,2013-07-14 09:59:00,
2013-07-14 04:15:00,54.9,47.0,29.78,SW,215,7.0,-999.0,76,-99.99,,,0.00,weatherlink.com 1.10,2013-07-14 10:15:00,
2013-07-14 04:30:00,55.2,47.0,29.78,SW,221,7.0,-999.0,75,-99.99,,,0.00,weatherlink.com 1.10,2013-07-14 10:30:00,
2013-07-14 04:45:00,55.1,47.0,29.79,SW,217,7.0,-999.0,75,-99.99,,,0.00,weatherlink.com 1.10,2013-07-14 10:45:00,
2013-07-14 05:00:00,55.0,47.0,29.78,SW,217,9.0,-999.0,75,-99.99,,,0.00,weatherlink.com 1.10,2013-07-14 11:00:00,
2013-07-14 05:15:00,55.0,47.0,29.79,SW,219,5.0,-999.0,75,-99.99,,,0.00,weatherlink.com 1.10,2013-07-14 11:15:00,
2013-07-14 05:30:00,54.8,47.0,29.78,SSW,211,7.0,-999.0,75,-99.99,,,0.00,weatherlink.com 1.10,2013-07-14 11:30:00,
2013-07-14 05:45:00,54.6,47.0,29.78,SSW,207,9.0,-999.0,75,-99.99,,,0.00,weatherlink.com 1.10,2013-07-14 11:45:00,
2013-07-14 06:01:00,54.6,46.0,29.78,SW,224,6.0,-999.0,74,-99.99,,,0.00,weatherlink.com 1.10,2013-07-14 12:01:00,
2013-07-14 06:16:00,54.6,47.0,29.78,SSW,202,4.0,-999.0,75,-99.99,,,0.00,weatherlink.com 1.10,2013-07-14 12:16:00,
2013-07-14 06:31:00,54.3,47.0,29.79,SW,231,0.0,-999.0,76,-99.99,,,0.00,weatherlink.com 1.10,2013-07-14 12:31:00,
2013-07-14 06:46:00,54.5,47.0,29.79,South,186,4.0,-999.0,75,-99.99,,,0.00,weatherlink.com 1.10,2013-07-14 12:46:00,
2013-07-14 07:01:00,53.9,47.0,29.79,SW,223,6.0,-999.0,76,-99.99,,,0.00,weatherlink.com 1.10,2013-07-14 13:01:00,
2013-07-14 07:16:00,53.7,47.0,29.80,SW,220,4.0,-999.0,77,-99.99,,,0.00,weatherlink.com 1.10,2013-07-14 13:16:00,
2013-07-14 07:31:00,54.0,47.0,29.80,West,269,2.0,-999.0,78,-99.99,,,0.00,weatherlink.com 1.10,2013-07-14 13:31:00,
2013-07-14 07:47:00,54.2,48.0,29.80,West,265,2.0,-999.0,79,-99.99,,,0.00,weatherlink.com 1.10,2013-07-14 13:47:00,
2013-07-14 08:02:00,54.1,47.0,29.80,SW,232,5.0,-999.0,77,-99.99,,,0.00,weatherlink.com 1.10,2013-07-14 14:02:00,
2013-07-14 08:17:00,54.1,49.0,29.81,ESE,111,0.0,-999.0,82,-99.99,,,0.00,weatherlink.com 1.10,2013-07-14 14:17:00,
2013-07-14 08:32:00,54.9,49.0,29.81,WSW,253,0.0,-999.0,81,-99.99,,,0.00,weatherlink.com 1.10,2013-07-14 14:32:00,
2013-07-14 08:48:00,56.8,51.0,29.81,WNW,286,0.0,-999.0,80,-99.99,,,0.00,weatherlink.com 1.10,2013-07-14 14:48:00,
2013-07-14 09:03:00,56.7,50.0,29.81,SE,131,2.0,-999.0,78,-99.99,,,0.00,weatherlink.com 1.10,2013-07-14 15:03:00,
2013-07-14 09:19:00,57.0,52.0,29.82,NNW,348,0.0,-999.0,82,-99.99,,,0.00,weatherlink.com 1.10,2013-07-14 15:19:00,
2013-07-14 09:33:00,56.6,51.0,29.82,NE,38,0.0,-999.0,80,-99.99,,,0.00,weatherlink.com 1.10,2013-07-14 15:33:00,
2013-07-14 09:48:00,57.9,52.0,29.82,NNE,30,7.0,-999.0,82,-99.99,,,0.00,weatherlink.com 1.10,2013-07-14 15:48:00,
2013-07-14 10:03:00,56.4,52.0,29.82,NNE,27,6.0,-999.0,86,-99.99,,,0.00,weatherlink.com 1.10,2013-07-14 16:03:00,
2013-07-14 10:18:00,56.8,53.0,29.82,North,5,5.0,-999.0,87,-99.99,,,0.00,weatherlink.com 1.10,2013-07-14 16:18:00,
2013-07-14 10:34:00,57.1,52.0,29.82,NNW,341,1.0,-999.0,84,-99.99,,,0.00,weatherlink.com 1.10,2013-07-14 16:34:00,
2013-07-14 10:49:00,55.6,52.0,29.82,NNE,26,3.0,-999.0,87,-99.99,,,0.00,weatherlink.com 1.10,2013-07-14 16:49:00,
2013-07-14 11:04:00,56.0,52.0,29.82,NNE,17,2.0,-999.0,87,-99.99,,,0.00,weatherlink.com 1.10,2013-07-14 17:04:00,
2013-07-14 11:19:00,55.3,52.0,29.82,North,5,7.0,-999.0,88,-99.99,,,0.00,weatherlink.com 1.10,2013-07-14 17:19:00,
2013-07-14 11:34:00,56.0,53.0,29.83,NNE,25,6.0,-999.0,88,-99.99,,,0.00,weatherlink.com 1.10,2013-07-14 17:34:00,
2013-07-14 11:49:00,57.7,54.0,29.82,NNE,15,3.0,-999.0,87,-99.99,,,0.00,weatherlink.com 1.10,2013-07-14 17:49:00,
2013-07-14 12:04:00,58.4,53.0,29.82,NNW,343,8.0,-999.0,83,-99.99,,,0.00,weatherlink.com 1.10,2013-07-14 18:04:00,
2013-07-14 12:20:00,58.5,53.0,29.82,NNE,29,6.0,-999.0,82,-99.99,,,0.00,weatherlink.com 1.10,2013-07-14 18:20:00,
2013-07-14 12:35:00,58.7,54.0,29.83,North,355,4.0,-999.0,83,-99.99,,,0.00,weatherlink.com 1.10,2013-07-14 18:35:00,
2013-07-14 12:50:00,59.3,54.0,29.82,North,11,4.0,-999.0,83,-99.99,,,0.00,weatherlink.com 1.10,2013-07-14 18:50:00,
2013-07-14 13:05:00,60.3,54.0,29.82,NNE,26,8.0,-999.0,80,-99.99,,,0.00,weatherlink.com 1.10,2013-07-14 19:05:00,
2013-07-14 13:20:00,60.8,54.0,29.83,North,5,5.0,-999.0,78,-99.99,,,0.00,weatherlink.com 1.10,2013-07-14 19:20:00,
2013-07-14 13:35:00,59.6,53.0,29.83,NNE,17,6.0,-999.0,80,-99.99,,,0.00,weatherlink.com 1.10,2013-07-14 19:35:00,
2013-07-14 13:51:00,60.7,54.0,29.82,NNE,32,5.0,-999.0,78,-99.99,,,0.00,weatherlink.com 1.10,2013-07-14 19:51:00,
2013-07-14 14:06:00,61.6,54.0,29.82,North,9,4.0,-999.0,77,-99.99,,,0.00,weatherlink.com 1.10,2013-07-14 20:06:00,
2013-07-14 14:21:00,60.3,52.0,29.83,NNW,339,6.0,-999.0,75,-99.99,,,0.00,weatherlink.com 1.10,2013-07-14 20:21:00,
2013-07-14 14:36:00,58.1,52.0,29.83,NNE,29,2.0,-999.0,80,-99.99,,,0.00,weatherlink.com 1.10,2013-07-14 20:36:00,
2013-07-14 14:51:00,56.2,52.0,29.82,ENE,78,13.0,-999.0,85,-99.99,,,0.00,weatherlink.com 1.10,2013-07-14 20:51:00,
2013-07-14 15:06:00,58.2,52.0,29.82,ESE,105,7.0,-999.0,81,-99.99,,,0.00,weatherlink.com 1.10,2013-07-14 21:06:00,
2013-07-14 15:21:00,58.0,51.0,29.82,East,96,8.0,-999.0,78,-99.99,,,0.00,weatherlink.com 1.10,2013-07-14 21:21:00,
2013-07-14 15:36:00,58.3,52.0,29.82,ESE,109,5.0,-999.0,79,-99.99,,,0.00,weatherlink.com 1.10,2013-07-14 21:36:00,
2013-07-14 15:52:00,59.6,52.0,29.81,ESE,109,5.0,-999.0,76,-99.99,,,0.00,weatherlink.com 1.10,2013-07-14 21:52:00,
2013-07-14 16:07:00,61.6,51.0,29.81,East,90,8.0,-999.0,69,-99.99,,,0.00,weatherlink.com 1.10,2013-07-14 22:07:00,
2013-07-14 16:22:00,61.6,52.0,29.82,NNE,26,1.0,-999.0,70,-99.99,,,0.00,weatherlink.com 1.10,2013-07-14 22:22:00,
2013-07-14 16:37:00,60.1,49.0,29.82,ESE,117,4.0,-999.0,67,-99.99,,,0.00,weatherlink.com 1.10,2013-07-14 22:37:00,
2013-07-14 16:52:00,59.9,49.0,29.83,NNE,27,3.0,-999.0,68,-99.99,,,0.00,weatherlink.com 1.10,2013-07-14 22:52:00,
2013-07-14 17:07:00,59.7,49.0,29.83,East,95,0.0,-999.0,69,-99.99,,,0.00,weatherlink.com 1.10,2013-07-14 23:07:00,
2013-07-14 17:22:00,59.7,49.0,29.83,NE,51,0.0,-999.0,69,-99.99,,,0.00,weatherlink.com 1.10,2013-07-14 23:22:00,
2013-07-14 17:37:00,62.3,51.0,29.82,NE,42,1.0,-999.0,67,-99.99,,,0.00,weatherlink.com 1.10,2013-07-14 23:37:00,
2013-07-14 17:52:00,62.6,50.0,29.82,ESE,111,0.0,-999.0,63,-99.99,,,0.00,weatherlink.com 1.10,2013-07-14 23:52:00,
2013-07-14 18:08:00,62.3,49.0,29.82,ENE,78,0.0,-999.0,63,-99.99,,,0.00,weatherlink.com 1.10,2013-07-15 00:08:00,
2013-07-14 18:23:00,61.6,49.0,29.81,ENE,63,1.0,-999.0,63,-99.99,,,0.00,weatherlink.com 1.10,2013-07-15 00:23:00,
2013-07-14 18:38:00,62.8,49.0,29.81,ENE,69,0.0,-999.0,61,-99.99,,,0.00,weatherlink.com 1.10,2013-07-15 00:38:00,
2013-07-14 18:53:00,63.7,50.0,29.82,NNW,348,3.0,-999.0,62,-99.99,,,0.00,weatherlink.com 1.10,2013-07-15 00:53:00,
2013-07-14 19:08:00,62.5,50.0,29.82,NE,51,1.0,-999.0,63,-99.99,,,0.00,weatherlink.com 1.10,2013-07-15 01:08:00,
2013-07-14 19:23:00,61.5,49.0,29.82,ENE,76,1.0,-999.0,64,-99.99,,,0.00,weatherlink.com 1.10,2013-07-15 01:23:00,
2013-07-14 19:38:00,62.0,48.0,29.82,SW,232,0.0,-999.0,61,-99.99,,,0.00,weatherlink.com 1.10,2013-07-15 01:38:00,
2013-07-14 19:53:00,61.1,49.0,29.82,NE,50,5.0,-999.0,64,-99.99,,,0.00,weatherlink.com 1.10,2013-07-15 01:53:00,
2013-07-14 20:08:00,59.6,49.0,29.81,ENE,74,4.0,-999.0,67,-99.99,,,0.00,weatherlink.com 1.10,2013-07-15 02:08:00,
2013-07-14 20:23:00,57.8,50.0,29.81,ENE,69,0.0,-999.0,75,-99.99,,,0.00,weatherlink.com 1.10,2013-07-15 02:23:00,
2013-07-14 20:38:00,56.3,51.0,29.81,ENE,66,2.0,-999.0,81,-99.99,,,0.00,weatherlink.com 1.10,2013-07-15 02:38:00,
2013-07-14 20:53:00,55.5,51.0,29.81,East,98,7.0,-999.0,86,-99.99,,,0.00,weatherlink.com 1.10,2013-07-15 02:53:00,
2013-07-14 21:08:00,55.0,52.0,29.82,East,84,1.0,-999.0,89,-99.99,,,0.00,weatherlink.com 1.10,2013-07-15 03:08:00,
2013-07-14 21:24:00,54.8,52.0,29.83,East,86,1.0,-999.0,89,-99.99,,,0.00,weatherlink.com 1.10,2013-07-15 03:24:00,
2013-07-14 21:39:00,54.4,52.0,29.83,East,88,4.0,-999.0,91,-99.99,,,0.00,weatherlink.com 1.10,2013-07-15 03:39:00,
2013-07-14 21:54:00,54.0,52.0,29.83,ENE,64,1.0,-999.0,93,-99.99,,,0.00,weatherlink.com 1.10,2013-07-15 03:54:00,
2013-07-14 22:09:00,53.7,52.0,29.82,East,84,6.0,-999.0,94,-99.99,,,0.00,weatherlink.com 1.10,2013-07-15 04:09:00,
2013-07-14 22:24:00,53.3,52.0,29.82,ESE,102,6.0,-999.0,94,-99.99,,,0.00,weatherlink.com 1.10,2013-07-15 04:24:00,
2013-07-14 22:39:00,53.2,52.0,29.82,East,94,5.0,-999.0,94,-99.99,,,0.00,weatherlink.com 1.10,2013-07-15 04:39:00,
2013-07-14 22:54:00,53.3,51.0,29.82,ESE,109,6.0,-999.0,92,-99.99,,,0.00,weatherlink.com 1.10,2013-07-15 04:54:00,
2013-07-14 23:09:00,54.1,50.0,29.83,ESE,112,5.0,-999.0,87,-99.99,,,0.00,weatherlink.com 1.10,2013-07-15 05:09:00,
2013-07-14 23:24:00,54.0,50.0,29.82,ESE,115,8.0,-999.0,87,-99.99,,,0.00,weatherlink.com 1.10,2013-07-15 05:24:00,
2013-07-14 23:39:00,54.4,50.0,29.82,ESE,119,6.0,-999.0,85,-99.99,,,0.00,weatherlink.com 1.10,2013-07-15 05:39:00,
2013-07-14 23:54:00,54.2,50.0,29.81,SE,137,5.0,-999.0,86,-99.99,,,0.00,weatherlink.com 1.10,2013-07-15 05:54:00,